createdAt,value
2022-10-24T00:00:18.886Z,11.30
2022-10-24T00:02:43.968Z,11.27
2022-10-24T00:05:08.226Z,10.75
2022-10-24T00:07:31.729Z,11.80
2022-10-24T00:09:55.409Z,12.10
2022-10-24T00:12:20.580Z,12.77
2022-10-24T00:14:44.140Z,12.40
2022-10-24T00:17:08.398Z,12.52
2022-10-24T00:19:33.338Z,11.43
2022-10-24T00:21:56.893Z,10.77
2022-10-24T00:24:20.692Z,10.80
2022-10-24T00:26:44.262Z,12.25
2022-10-24T00:29:07.943Z,11.02
2022-10-24T00:31:32.016Z,11.82
2022-10-24T00:33:56.742Z,11.35
2022-10-24T00:36:23.854Z,12.48
2022-10-24T00:38:48.227Z,11.57
2022-10-24T00:41:16.531Z,11.27
2022-10-24T00:43:40.147Z,11.07
2022-10-24T00:46:04.802Z,11.32
2022-10-24T00:48:34.757Z,10.98
2022-10-24T00:51:03.441Z,11.25
2022-10-24T00:53:30.962Z,10.65
2022-10-24T00:55:58.089Z,11.70
2022-10-24T00:58:25.150Z,11.48
2022-10-24T01:00:49.056Z,11.50
2022-10-24T01:03:12.958Z,11.93
2022-10-24T01:05:49.307Z,12.15
2022-10-24T01:08:28.422Z,12.20
2022-10-24T01:11:05.039Z,11.07
2022-10-24T01:13:39.510Z,11.90
2022-10-24T01:16:11.154Z,11.38
2022-10-24T01:18:41.252Z,11.70
2022-10-24T01:21:24.856Z,11.52
2022-10-24T01:24:41.730Z,11.32
2022-10-24T01:27:28.814Z,12.40
2022-10-24T01:30:04.851Z,11.32
2022-10-24T01:32:41.301Z,10.63
2022-10-24T01:35:14.484Z,12.00
2022-10-24T01:37:45.850Z,12.70
2022-10-24T01:40:15.587Z,11.38
2022-10-24T01:42:40.468Z,12.25
2022-10-24T01:45:08.234Z,12.63
2022-10-24T01:47:39.024Z,12.25
2022-10-24T01:50:07.395Z,11.70
2022-10-24T01:52:36.307Z,12.48
2022-10-24T01:55:00.587Z,12.68
2022-10-24T01:57:29.221Z,12.73
2022-10-24T01:59:52.801Z,12.35
2022-10-24T02:02:23.566Z,13.57
2022-10-24T02:04:54.499Z,14.20
2022-10-24T02:07:19.774Z,13.05
2022-10-24T02:09:46.198Z,13.25
2022-10-24T02:12:12.230Z,13.52
2022-10-24T02:14:40.103Z,13.45
2022-10-24T02:17:04.707Z,12.30
2022-10-24T02:19:30.318Z,13.38
2022-10-24T02:22:02.824Z,12.48
2022-10-24T02:24:31.258Z,13.25
2022-10-24T02:26:59.858Z,14.18
2022-10-24T02:29:29.247Z,14.63
2022-10-24T02:31:57.718Z,13.55
2022-10-24T02:34:23.066Z,16.70
2022-10-24T02:36:51.366Z,16.55
2022-10-24T02:39:15.969Z,12.93
2022-10-24T02:41:42.347Z,13.52
2022-10-24T02:44:07.437Z,13.27
2022-10-24T02:46:32.015Z,13.38
2022-10-24T02:49:00.938Z,14.93
2022-10-24T02:51:28.868Z,13.18
2022-10-24T02:53:55.094Z,13.75
2022-10-24T02:56:18.696Z,12.63
2022-10-24T02:58:42.343Z,13.02
2022-10-24T03:01:06.509Z,17.30
2022-10-24T03:03:30.146Z,13.68
2022-10-24T03:05:53.638Z,21.02
2022-10-24T03:08:17.395Z,14.20
2022-10-24T03:10:42.647Z,14.00
2022-10-24T03:13:06.540Z,14.38
2022-10-24T03:15:30.078Z,11.88
2022-10-24T03:17:53.673Z,12.15
2022-10-24T03:20:17.649Z,13.65
2022-10-24T03:22:41.207Z,13.40
2022-10-24T03:25:06.300Z,13.95
2022-10-24T03:27:31.710Z,15.25
2022-10-24T03:29:55.232Z,11.68
2022-10-24T03:32:18.859Z,13.50
2022-10-24T03:34:42.455Z,13.00
2022-10-24T03:37:06.085Z,13.20
2022-10-24T03:39:29.617Z,11.68
2022-10-24T03:41:53.189Z,12.73
2022-10-24T03:44:18.167Z,12.25
2022-10-24T03:46:41.759Z,13.27
2022-10-24T03:49:05.272Z,12.68
2022-10-24T03:51:28.959Z,13.80
2022-10-24T03:53:52.476Z,11.40
2022-10-24T03:56:16.046Z,11.45
2022-10-24T03:58:39.856Z,13.52
2022-10-24T04:01:05.013Z,11.93
2022-10-24T04:03:29.219Z,12.07
2022-10-24T04:05:52.890Z,9.68
2022-10-24T04:08:16.419Z,11.20
2022-10-24T04:10:39.994Z,10.90
2022-10-24T04:13:03.502Z,11.82
2022-10-24T04:15:27.099Z,11.73
2022-10-24T04:17:52.027Z,9.02
2022-10-24T04:20:19.504Z,11.65
2022-10-24T04:22:43.302Z,11.57
2022-10-24T04:25:07.725Z,10.68
2022-10-24T04:27:31.303Z,10.98
2022-10-24T04:29:54.910Z,11.38
2022-10-24T04:32:18.446Z,9.00
2022-10-24T04:34:43.411Z,8.52
2022-10-24T04:37:07.023Z,11.65
2022-10-24T04:39:30.644Z,10.60
2022-10-24T04:41:54.197Z,9.13
2022-10-24T04:44:17.802Z,10.25
2022-10-24T04:46:41.310Z,10.27
2022-10-24T04:49:05.390Z,10.23
2022-10-24T04:51:30.387Z,12.23
2022-10-24T04:53:54.146Z,10.50
2022-10-24T04:56:17.762Z,10.05
2022-10-24T04:58:41.358Z,10.85
2022-10-24T05:01:06.110Z,8.48
2022-10-24T05:03:29.783Z,9.20
2022-10-24T05:05:53.291Z,11.60
2022-10-24T05:08:19.265Z,12.75
2022-10-24T05:10:43.359Z,10.10
2022-10-24T05:13:07.218Z,10.45
2022-10-24T05:15:31.084Z,9.98
2022-10-24T05:17:54.667Z,12.23
2022-10-24T05:20:18.399Z,11.02
2022-10-24T05:22:42.853Z,12.32
2022-10-24T05:25:09.799Z,12.77
2022-10-24T05:27:33.491Z,10.98
2022-10-24T05:29:57.092Z,10.32
2022-10-24T05:32:22.201Z,10.90
2022-10-24T05:34:45.857Z,12.30
2022-10-24T05:37:09.464Z,12.15
2022-10-24T05:39:32.988Z,11.93
2022-10-24T05:41:57.940Z,11.10
2022-10-24T05:44:21.462Z,11.25
2022-10-24T05:46:45.034Z,10.98
2022-10-24T05:49:09.019Z,11.30
2022-10-24T05:51:32.938Z,10.35
2022-10-24T05:53:56.523Z,10.45
2022-10-24T05:56:20.091Z,11.30
2022-10-24T05:58:44.978Z,11.57
2022-10-24T06:01:08.652Z,11.50
2022-10-24T06:03:32.293Z,12.60
2022-10-24T06:05:55.960Z,11.98
2022-10-24T06:08:19.807Z,12.02
2022-10-24T06:10:43.595Z,12.63
2022-10-24T06:13:07.142Z,13.27
2022-10-24T06:15:32.240Z,11.80
2022-10-24T06:17:55.795Z,12.38
2022-10-24T06:20:19.792Z,10.88
2022-10-24T06:22:45.608Z,11.48
2022-10-24T06:25:10.294Z,11.55
2022-10-24T06:27:33.846Z,12.00
2022-10-24T06:29:57.527Z,10.85
2022-10-24T06:32:22.559Z,11.27
2022-10-24T06:34:46.164Z,10.57
2022-10-24T06:37:09.724Z,10.70
2022-10-24T06:39:33.496Z,11.85
2022-10-24T06:41:57.010Z,13.23
2022-10-24T06:44:22.837Z,11.85
2022-10-24T06:46:46.710Z,12.15
2022-10-24T06:49:12.979Z,10.35
2022-10-24T06:51:37.095Z,10.43
2022-10-24T06:54:00.936Z,11.23
2022-10-24T06:56:24.451Z,11.70
2022-10-24T06:58:48.106Z,11.75
2022-10-24T07:01:14.558Z,13.05
2022-10-24T07:03:38.647Z,11.65
2022-10-24T07:06:08.567Z,11.23
2022-10-24T07:08:32.183Z,12.65
2022-10-24T07:10:55.749Z,12.85
2022-10-24T07:13:19.321Z,11.98
2022-10-24T07:15:42.851Z,12.90
2022-10-24T07:18:06.643Z,14.13
2022-10-24T07:20:30.253Z,12.68
2022-10-24T07:22:55.303Z,13.93
2022-10-24T07:25:19.730Z,14.05
2022-10-24T07:27:43.648Z,12.45
2022-10-24T07:30:09.545Z,11.15
2022-10-24T07:32:33.107Z,11.73
2022-10-24T07:34:56.643Z,11.32
2022-10-24T07:37:20.768Z,11.00
2022-10-24T07:39:46.771Z,10.32
2022-10-24T07:42:12.618Z,11.55
2022-10-24T07:44:36.192Z,10.15
2022-10-24T07:46:59.910Z,10.10
2022-10-24T07:49:23.471Z,10.38
2022-10-24T07:51:47.139Z,10.50
2022-10-24T07:54:10.759Z,9.55
2022-10-24T07:56:35.822Z,10.02
2022-10-24T07:59:05.859Z,11.23
2022-10-24T08:01:34.846Z,9.32
2022-10-24T08:03:59.118Z,7.88
2022-10-24T08:06:26.823Z,9.35
2022-10-24T08:08:50.927Z,7.68
2022-10-24T08:11:16.826Z,7.28
2022-10-24T08:13:42.049Z,7.50
2022-10-24T08:16:07.925Z,7.30
2022-10-24T08:18:34.637Z,6.65
2022-10-24T08:21:05.383Z,7.05
2022-10-24T08:23:29.998Z,6.22
2022-10-24T08:25:53.680Z,6.53
2022-10-24T08:28:17.406Z,6.38
2022-10-24T08:30:42.366Z,6.05
2022-10-24T08:33:06.049Z,6.85
2022-10-24T08:35:29.606Z,6.32
2022-10-24T08:37:53.131Z,5.60
2022-10-24T08:40:21.308Z,5.82
2022-10-24T08:42:46.299Z,5.63
2022-10-24T08:45:15.279Z,5.22
2022-10-24T08:47:45.824Z,5.47
2022-10-24T08:50:24.487Z,5.53
2022-10-24T08:52:51.707Z,5.38
2022-10-24T08:55:31.038Z,5.18
2022-10-24T08:58:02.420Z,5.43
2022-10-24T09:00:29.679Z,5.60
2022-10-24T09:03:04.726Z,4.30
2022-10-24T09:05:34.967Z,4.38
2022-10-24T09:08:06.813Z,5.10
2022-10-24T09:10:44.787Z,4.38
2022-10-24T09:13:15.313Z,4.38
2022-10-24T09:15:39.082Z,4.68
2022-10-24T09:18:04.186Z,4.25
2022-10-24T09:20:33.436Z,3.67
2022-10-24T09:23:00.779Z,4.18
2022-10-24T09:25:29.753Z,4.47
2022-10-24T09:27:53.496Z,4.00
2022-10-24T09:30:21.324Z,4.13
2022-10-24T09:32:45.370Z,3.80
2022-10-24T09:35:18.407Z,4.07
2022-10-24T09:37:47.462Z,4.10
2022-10-24T09:40:31.629Z,4.20
2022-10-24T09:43:01.370Z,3.78
2022-10-24T09:45:41.096Z,4.38
2022-10-24T09:48:16.858Z,4.03
2022-10-24T09:50:45.202Z,3.78
2022-10-24T09:53:15.734Z,3.85
2022-10-24T09:55:46.974Z,3.45
2022-10-24T09:58:22.227Z,3.70
2022-10-24T10:00:58.207Z,4.22
2022-10-24T10:03:24.422Z,3.53
2022-10-24T10:05:51.292Z,3.92
2022-10-24T10:08:21.542Z,3.78
2022-10-24T10:10:45.249Z,3.50
2022-10-24T10:13:24.037Z,3.70
2022-10-24T10:15:50.420Z,3.47
2022-10-24T10:18:30.320Z,3.17
2022-10-24T10:21:14.982Z,3.53
2022-10-24T10:23:41.547Z,3.70
2022-10-24T10:26:23.145Z,3.38
2022-10-24T10:29:01.894Z,3.25
2022-10-24T10:31:31.155Z,3.15
2022-10-24T10:34:20.328Z,4.10
2022-10-24T10:37:27.873Z,3.38
2022-10-24T10:40:17.917Z,3.50
2022-10-24T10:42:54.547Z,3.40
2022-10-24T10:45:34.009Z,2.83
2022-10-24T10:48:21.255Z,3.67
2022-10-24T10:50:50.681Z,3.08
2022-10-24T10:53:39.218Z,3.42
2022-10-24T10:56:18.515Z,3.30
2022-10-24T10:58:51.991Z,3.35
2022-10-24T11:01:24.595Z,3.05
2022-10-24T11:03:58.654Z,3.30
2022-10-24T11:06:44.204Z,2.70
2022-10-24T11:09:26.941Z,3.28
2022-10-24T11:11:59.463Z,3.30
2022-10-24T11:14:31.043Z,2.95
2022-10-24T11:16:58.675Z,3.00
2022-10-24T11:19:28.435Z,2.95
2022-10-24T11:21:52.607Z,3.17
2022-10-24T11:24:22.235Z,3.08
2022-10-24T11:26:51.581Z,2.60
2022-10-24T11:29:26.362Z,3.17
2022-10-24T11:31:54.363Z,3.00
2022-10-24T11:34:25.418Z,3.17
2022-10-24T11:36:56.530Z,2.85
2022-10-24T11:39:27.059Z,3.33
2022-10-24T11:41:58.719Z,2.80
2022-10-24T11:44:48.863Z,2.75
2022-10-24T11:47:39.663Z,2.85
2022-10-24T11:50:13.480Z,2.80
2022-10-24T11:52:41.453Z,3.05
2022-10-24T11:55:16.698Z,2.58
2022-10-24T11:57:41.021Z,3.10
2022-10-24T12:00:06.184Z,2.70
2022-10-24T12:03:37.600Z,3.03
2022-10-24T12:06:18.306Z,2.95
2022-10-24T12:09:19.881Z,2.55
2022-10-24T12:12:01.263Z,2.63
2022-10-24T12:14:56.765Z,2.50
2022-10-24T12:17:51.396Z,2.80
2022-10-24T12:20:19.301Z,3.05
2022-10-24T12:22:45.677Z,2.85
2022-10-24T12:25:23.622Z,2.75
2022-10-24T12:27:56.418Z,2.80
2022-10-24T12:30:24.197Z,3.10
2022-10-24T12:32:51.127Z,2.70
2022-10-24T12:35:48.151Z,3.45
2022-10-24T12:38:20.437Z,2.88
2022-10-24T12:40:55.635Z,2.55
2022-10-24T12:43:33.907Z,2.80
2022-10-24T12:46:00.250Z,2.58
2022-10-24T12:48:35.906Z,3.42
2022-10-24T12:51:32.647Z,2.80
2022-10-24T12:54:16.887Z,3.08
2022-10-24T12:57:23.815Z,2.70
2022-10-24T12:59:50.904Z,2.55
2022-10-24T13:02:41.193Z,2.83
2022-10-24T13:05:22.862Z,2.30
2022-10-24T13:07:59.747Z,2.72
2022-10-24T13:10:46.479Z,2.53
2022-10-24T13:13:34.032Z,2.95
2022-10-24T13:16:05.068Z,2.58
2022-10-24T13:18:44.201Z,2.40
2022-10-24T13:21:18.829Z,2.42
2022-10-24T13:23:44.518Z,3.55
2022-10-24T13:26:08.520Z,2.70
2022-10-24T13:28:43.396Z,3.10
2022-10-24T13:31:47.783Z,2.38
2022-10-24T13:34:44.074Z,2.40
2022-10-24T13:37:16.134Z,2.60
2022-10-24T13:39:48.295Z,2.30
2022-10-24T13:42:28.190Z,3.00
2022-10-24T13:44:54.704Z,2.33
2022-10-24T13:47:24.412Z,2.47
2022-10-24T13:49:57.678Z,2.70
2022-10-24T13:52:27.700Z,2.10
2022-10-24T13:54:58.548Z,2.30
2022-10-24T13:57:33.687Z,2.40
2022-10-24T14:00:00.138Z,2.58
2022-10-24T14:02:32.127Z,2.40
2022-10-24T14:04:58.314Z,2.50
2022-10-24T14:07:27.575Z,2.28
2022-10-24T14:09:59.721Z,3.50
2022-10-24T14:12:28.133Z,2.40
2022-10-24T14:14:53.700Z,2.83
2022-10-24T14:17:24.095Z,2.50
2022-10-24T14:19:55.818Z,2.28
2022-10-24T14:22:25.720Z,2.30
2022-10-24T14:24:50.578Z,2.50
2022-10-24T14:27:15.612Z,2.65
2022-10-24T14:29:39.231Z,2.53
2022-10-24T14:32:07.812Z,2.65
2022-10-24T14:34:36.128Z,2.15
2022-10-24T14:37:05.582Z,2.75
2022-10-24T14:39:29.488Z,2.58
2022-10-24T14:41:54.399Z,2.10
2022-10-24T14:44:20.514Z,2.03
2022-10-24T14:46:46.076Z,2.40
2022-10-24T14:49:28.635Z,2.40
2022-10-24T14:51:54.263Z,2.60
2022-10-24T14:54:21.527Z,2.25
2022-10-24T14:56:45.348Z,2.35
2022-10-24T14:59:23.561Z,2.53
2022-10-24T15:01:58.150Z,2.38
2022-10-24T15:04:32.698Z,2.55
2022-10-24T15:06:58.258Z,3.10
2022-10-24T15:09:23.187Z,2.58
2022-10-24T15:11:48.709Z,2.70
2022-10-24T15:14:35.287Z,2.70
2022-10-24T15:17:01.395Z,2.78
2022-10-24T15:19:24.963Z,3.40
2022-10-24T15:21:49.059Z,3.25
2022-10-24T15:24:25.217Z,3.35
2022-10-24T15:26:48.879Z,3.30
2022-10-24T15:29:21.948Z,2.92
2022-10-24T15:31:48.263Z,3.58
2022-10-24T15:34:17.213Z,15.82
2022-10-24T15:36:43.364Z,19.23
2022-10-24T15:39:14.351Z,16.98
2022-10-24T15:41:40.462Z,4.00
2022-10-24T15:44:07.524Z,5.72
2022-10-24T15:46:31.527Z,5.25
2022-10-24T15:48:55.318Z,4.53
2022-10-24T15:51:21.265Z,3.53
2022-10-24T15:53:45.448Z,7.30
2022-10-24T15:56:11.216Z,18.67
2022-10-24T15:58:36.225Z,46.90
2022-10-24T16:01:00.740Z,26.80
2022-10-24T16:03:25.454Z,31.65
2022-10-24T16:05:53.448Z,5.75
2022-10-24T16:08:18.861Z,4.95
2022-10-24T16:10:42.906Z,4.30
2022-10-24T16:13:06.473Z,4.75
2022-10-24T16:15:36.649Z,3.92
2022-10-24T16:18:00.526Z,3.97
2022-10-24T16:20:24.067Z,4.35
2022-10-24T16:22:47.868Z,3.55
2022-10-24T16:25:18.154Z,3.42
2022-10-24T16:27:41.874Z,3.20
2022-10-24T16:30:06.391Z,4.40
2022-10-24T16:32:31.363Z,3.30
2022-10-24T16:34:56.891Z,3.60
2022-10-24T16:37:21.701Z,2.92
2022-10-24T16:39:45.220Z,4.00
2022-10-24T16:42:08.901Z,3.20
2022-10-24T16:44:35.453Z,3.45
2022-10-24T16:46:59.015Z,4.63
2022-10-24T16:49:24.310Z,3.70
2022-10-24T16:51:47.933Z,3.67
2022-10-24T16:54:11.521Z,3.95
2022-10-24T16:56:35.114Z,2.97
2022-10-24T16:58:58.700Z,3.72
2022-10-24T17:01:23.214Z,3.65
2022-10-24T17:03:47.047Z,3.45
2022-10-24T17:06:13.371Z,3.50
2022-10-24T17:08:37.151Z,3.92
2022-10-24T17:11:01.063Z,3.42
2022-10-24T17:13:25.448Z,3.80
2022-10-24T17:15:49.146Z,26.58
2022-10-24T17:18:13.579Z,14.40
2022-10-24T17:20:37.263Z,7.15
2022-10-24T17:23:05.682Z,5.70
2022-10-24T17:25:30.720Z,4.10
2022-10-24T17:27:56.156Z,4.40
2022-10-24T17:30:22.957Z,4.10
2022-10-24T17:32:47.216Z,3.15
2022-10-24T17:35:14.713Z,4.00
2022-10-24T17:37:52.871Z,4.35
2022-10-24T17:40:21.103Z,5.05
2022-10-24T17:42:47.990Z,5.88
2022-10-24T17:45:16.935Z,4.88
2022-10-24T17:47:40.752Z,4.03
2022-10-24T17:50:04.476Z,4.18
2022-10-24T17:52:27.996Z,3.42
2022-10-24T17:54:52.554Z,3.80
2022-10-24T17:57:17.526Z,3.10
2022-10-24T17:59:41.133Z,3.60
2022-10-24T18:02:04.847Z,4.60
2022-10-24T18:04:28.623Z,4.70
2022-10-24T18:06:52.227Z,12.35
2022-10-24T18:09:15.798Z,21.83
2022-10-24T18:11:40.103Z,19.08
2022-10-24T18:14:05.135Z,47.92
2022-10-24T18:16:30.621Z,12.25
2022-10-24T18:18:54.479Z,25.90
2022-10-24T18:21:21.207Z,10.40
2022-10-24T18:23:44.967Z,13.13
2022-10-24T18:26:09.425Z,8.60
2022-10-24T18:28:32.962Z,21.55
2022-10-24T18:30:57.854Z,8.68
2022-10-24T18:33:21.386Z,9.82
2022-10-24T18:35:44.923Z,5.10
2022-10-24T18:38:08.479Z,5.25
2022-10-24T18:40:33.583Z,5.80
2022-10-24T18:43:04.252Z,4.22
2022-10-24T18:45:29.769Z,4.38
2022-10-24T18:47:55.914Z,3.22
2022-10-24T18:50:23.411Z,3.80
2022-10-24T18:52:51.990Z,3.88
2022-10-24T18:55:21.023Z,3.03
2022-10-24T18:57:45.477Z,2.90
2022-10-24T19:00:10.963Z,2.80
2022-10-24T19:02:40.517Z,2.90
2022-10-24T19:05:17.699Z,4.65
2022-10-24T19:07:42.437Z,3.38
2022-10-24T19:10:06.958Z,2.70
2022-10-24T19:12:30.807Z,2.72
2022-10-24T19:14:54.946Z,3.10
2022-10-24T19:17:18.574Z,2.80
2022-10-24T19:19:43.426Z,2.67
2022-10-24T19:22:08.431Z,2.90
2022-10-24T19:24:32.203Z,2.78
2022-10-24T19:26:55.796Z,3.10
2022-10-24T19:29:19.714Z,2.70
2022-10-24T19:31:43.318Z,3.50
2022-10-24T19:34:06.842Z,3.50
2022-10-24T19:36:31.905Z,3.38
2022-10-24T19:38:58.010Z,3.30
2022-10-24T19:41:21.568Z,3.10
2022-10-24T19:43:45.078Z,3.33
2022-10-24T19:46:24.695Z,2.78
2022-10-24T19:48:49.634Z,3.15
2022-10-24T19:51:14.501Z,3.10
2022-10-24T19:53:40.266Z,3.00
2022-10-24T19:56:11.259Z,2.80
2022-10-24T19:58:35.224Z,2.85
2022-10-24T20:01:06.642Z,3.90
2022-10-24T20:03:30.226Z,4.05
2022-10-24T20:05:53.739Z,4.10
2022-10-24T20:08:17.307Z,3.70
2022-10-24T20:10:40.882Z,3.70
2022-10-24T20:13:05.863Z,3.40
2022-10-24T20:15:29.419Z,3.65
2022-10-24T20:17:53.007Z,3.75
2022-10-24T20:20:18.596Z,3.53
2022-10-24T20:22:42.527Z,3.70
2022-10-24T20:25:07.332Z,3.30
2022-10-24T20:27:30.900Z,3.30
2022-10-24T20:29:55.875Z,3.17
2022-10-24T20:32:20.269Z,2.88
2022-10-24T20:34:43.855Z,3.55
2022-10-24T20:37:08.274Z,3.17
2022-10-24T20:39:31.815Z,3.40
2022-10-24T20:41:55.422Z,3.20
2022-10-24T20:44:19.011Z,3.40
2022-10-24T20:46:43.961Z,3.45
2022-10-24T20:49:07.602Z,3.30
2022-10-24T20:51:31.247Z,4.22
2022-10-24T20:53:54.963Z,3.85
2022-10-24T20:56:22.593Z,3.78
2022-10-24T20:58:47.039Z,3.80
2022-10-24T21:01:13.534Z,3.65
2022-10-24T21:03:39.177Z,4.38
2022-10-24T21:06:02.807Z,3.67
2022-10-24T21:08:26.311Z,3.50
2022-10-24T21:10:51.142Z,3.33
2022-10-24T21:13:14.658Z,3.67
2022-10-24T21:15:38.279Z,3.45
2022-10-24T21:18:01.797Z,3.50
2022-10-24T21:20:26.917Z,3.65
2022-10-24T21:22:50.438Z,3.60
2022-10-24T21:25:14.057Z,3.60
2022-10-24T21:27:37.583Z,3.20
2022-10-24T21:30:01.179Z,4.40
2022-10-24T21:32:24.725Z,4.03
2022-10-24T21:34:48.336Z,3.97
2022-10-24T21:37:13.267Z,4.70
2022-10-24T21:39:36.823Z,5.00
2022-10-24T21:42:00.392Z,5.05
2022-10-24T21:44:24.233Z,4.45
2022-10-24T21:46:47.750Z,4.20
2022-10-24T21:49:12.330Z,4.90
2022-10-24T21:51:39.230Z,4.70
2022-10-24T21:54:07.132Z,4.28
2022-10-24T21:56:33.422Z,3.95
2022-10-24T21:58:59.810Z,4.38
2022-10-24T22:01:26.407Z,4.30
2022-10-24T22:03:50.431Z,4.43
2022-10-24T22:06:16.922Z,4.65
2022-10-24T22:08:41.007Z,4.38
2022-10-24T22:11:09.589Z,4.65
2022-10-24T22:13:33.788Z,4.88
2022-10-24T22:15:57.810Z,5.00
2022-10-24T22:18:21.943Z,5.50
2022-10-24T22:20:45.483Z,5.00
2022-10-24T22:23:09.042Z,5.25
2022-10-24T22:25:32.578Z,4.55
2022-10-24T22:27:57.566Z,4.97
2022-10-24T22:30:21.079Z,4.55
2022-10-24T22:32:45.386Z,5.05
2022-10-24T22:35:12.348Z,4.68
2022-10-24T22:37:36.356Z,4.57
2022-10-24T22:40:00.623Z,4.63
2022-10-24T22:42:24.795Z,4.13
2022-10-24T22:44:51.006Z,5.00
2022-10-24T22:47:44.740Z,4.72
2022-10-24T22:50:21.858Z,4.35
2022-10-24T22:52:46.586Z,4.20
2022-10-24T22:55:19.945Z,4.43
2022-10-24T22:57:44.815Z,4.43
2022-10-24T23:00:12.401Z,4.90
2022-10-24T23:02:41.635Z,5.13
2022-10-24T23:05:08.020Z,5.30
2022-10-24T23:07:42.971Z,5.35
2022-10-24T23:10:10.912Z,4.75
2022-10-24T23:12:35.335Z,5.45
2022-10-24T23:14:59.676Z,5.72
2022-10-24T23:17:28.969Z,5.28
2022-10-24T23:19:53.740Z,5.72
2022-10-24T23:22:24.766Z,5.70
2022-10-24T23:24:49.347Z,5.72
2022-10-24T23:27:34.367Z,5.47
2022-10-24T23:29:58.852Z,5.78
2022-10-24T23:32:27.428Z,5.82
2022-10-24T23:34:52.582Z,5.80
2022-10-24T23:37:28.396Z,5.47
2022-10-24T23:39:52.680Z,5.30
2022-10-24T23:42:17.067Z,6.03
2022-10-24T23:44:41.350Z,6.07
2022-10-24T23:47:14.320Z,6.30
2022-10-24T23:49:48.627Z,5.43
2022-10-24T23:52:21.834Z,5.40
2022-10-24T23:54:46.223Z,6.50
2022-10-24T23:57:17.684Z,5.95
2022-10-24T23:59:41.237Z,5.80
